Terminal Aerodrome Forecast
Issued by NWS Topeka, KS

Home | Current Version | Previous Version | Graphics & Text | Print | Product List | Glossary On
Versions: 1 2 3 4 5 6 7 8 9 10 11 12 13 14 15
000
FTUS43 KTOP 222325
TAFTOP
TAF
KTOP 222325Z 2300/2324 06005KT P6SM VCTS SCT080CB
      TEMPO 2300/2303 VRB20G40KT 2SM TSRA BKN050CB
     FM230800 07003KT P6SM SCT020 BKN090=

USA.gov is the U.S. government's official web portal to all federal, state and local government web resources and services.